MMTJ

General Abelardo L. Rodríguez International Airport

Tijuana, Mexico
TAF MMTJ 252325Z 2600/2706 27010KT P6SM SCT020 SCT200 TX20/2620Z TN11/2613Z FM260400 32005KT 4SM HZ SCT015 FM260600 00000KT 3SM BR OVC010 TEMPO 2609/2612 1/2SM BR OVC005 FM261400 00000KT 3SM HZ BKN010 FM261700 26010KT 6SM HZ SKC FM270300 32005KT 5SM HZ SCT020
Issued Valid From Valid To
Apr-25 @ 23:25 UTC
(4 hours ago)
Apr-26 @ 00:00 UTC
(3 hours ago)
Apr-27 @ 06:00 UTC
(-1 days ago)
Apr-26 @ 00:00 to Apr-26 @ 04:00
TAF MMTJ 252325Z 2600/2706 27010KT P6SM SCT020 SCT200 TX20/2620Z TN11/2613Z
Wind Visibility Clouds
270° at 10 knots Greater than 6 miles
  • Scattered at 2,000' AGL
  • Scattered at 20,000' AGL
From Apr-26 @ 04:00 to Apr-26 @ 06:00
FM260400 32005KT 4SM HZ SCT015
Wind Visibility Clouds Conditions
320° at 5 knots 4 miles
  • Scattered at 1,500' AGL
  • Haze
From Apr-26 @ 06:00 to Apr-26 @ 14:00
FM260600 00000KT 3SM BR OVC010
Visibility Clouds Conditions
3 miles
  • Overcast at 1,000' AGL
  • Mist
Temporary Apr-26 @ 09:00 to Apr-26 @ 12:00
TEMPO 2609/2612 1/2SM BR OVC005
Visibility Clouds Conditions
1/2 miles
  • Overcast at 500' AGL
  • Mist
From Apr-26 @ 14:00 to Apr-26 @ 17:00
FM261400 00000KT 3SM HZ BKN010
Visibility Clouds Conditions
3 miles
  • Broken at 1,000' AGL
  • Haze
From Apr-26 @ 17:00 to Apr-27 @ 03:00
FM261700 26010KT 6SM HZ SKC
Wind Visibility Clouds Conditions
260° at 10 knots 6 miles
  • Clear skies
  • Haze
From Apr-27 @ 03:00 to Apr-27 @ 06:00
FM270300 32005KT 5SM HZ SCT020
Wind Visibility Clouds Conditions
320° at 5 knots 5 miles
  • Scattered at 2,000' AGL
  • Haze
TAF MMTJ 252325Z 2600/2706 27010KT P6SM SCT020 SCT200 TX20/2620Z TN11/2613Z FM260400 32005KT 4SM HZ SCT015 FM260600 00000KT 3SM BR OVC010 TEMPO 2609/2612 1/2SM BR OVC005 FM261400 00000KT 3SM HZ BKN010 FM261700 26010KT 6SM HZ SKC FM270300 32005KT 5SM HZ SCT020
Issued Apr-25 @ 23:25 UTC
(4 hours ago)
Valid From Apr-26 @ 00:00 UTC
(3 hours ago)
Valid To Apr-27 @ 06:00 UTC
(-1 days ago)
Apr-26 @ 00:00 - Apr-26 @ 04:00
Wind Visibility
270° at 10 knots Greater than 6 miles
Clouds
  • Scattered at 2,000' AGL
  • Scattered at 20,000' AGL
From Apr-26 @ 04:00 - Apr-26 @ 06:00
Wind Visibility
320° at 5 knots 4 miles
Clouds
  • Scattered at 1,500' AGL
Conditions
  • Haze
From Apr-26 @ 06:00 - Apr-26 @ 14:00
Clouds
  • Overcast at 1,000' AGL
Conditions
  • Mist
Temporary Apr-26 @ 09:00 - Apr-26 @ 12:00
Clouds
  • Overcast at 500' AGL
Conditions
  • Mist
From Apr-26 @ 14:00 - Apr-26 @ 17:00
Clouds
  • Broken at 1,000' AGL
Conditions
  • Haze
From Apr-26 @ 17:00 - Apr-27 @ 03:00
Wind Visibility
260° at 10 knots 6 miles
Clouds
  • Clear skies
Conditions
  • Haze
From Apr-27 @ 03:00 - Apr-27 @ 06:00
Wind Visibility
320° at 5 knots 5 miles
Clouds
  • Scattered at 2,000' AGL
Conditions
  • Haze